createdAt,value
2018-05-18T00:00:33.302Z,0
2018-05-18T00:01:43.043Z,0
2018-05-18T00:02:53.049Z,0
2018-05-18T00:04:02.526Z,0
2018-05-18T00:05:12.283Z,0
2018-05-18T00:06:22.032Z,0
2018-05-18T00:07:32.060Z,0
2018-05-18T00:08:41.852Z,0
2018-05-18T00:09:51.868Z,0
2018-05-18T00:11:01.874Z,0
2018-05-18T00:12:11.354Z,0
2018-05-18T00:13:21.096Z,0
2018-05-18T00:14:30.838Z,0
2018-05-18T00:15:40.133Z,0
2018-05-18T00:16:49.876Z,0
2018-05-18T00:17:59.620Z,0
2018-05-18T00:19:09.374Z,0
2018-05-18T00:20:18.850Z,0
2018-05-18T00:21:28.608Z,0
2018-05-18T00:22:38.081Z,0
2018-05-18T00:23:47.559Z,0
2018-05-18T00:24:57.299Z,0
2018-05-18T00:26:07.038Z,0
2018-05-18T00:27:17.045Z,0
2018-05-18T00:28:26.803Z,0
2018-05-18T00:29:36.275Z,0
2018-05-18T00:30:46.026Z,0
2018-05-18T00:31:56.033Z,0
2018-05-18T00:33:06.065Z,0
2018-05-18T00:34:15.543Z,0
2018-05-18T00:35:25.021Z,0
2018-05-18T00:36:34.857Z,0
2018-05-18T00:37:44.884Z,0
2018-05-18T00:38:54.624Z,0
2018-05-18T00:40:04.874Z,0
2018-05-18T00:41:14.579Z,0
2018-05-18T00:42:24.056Z,0
2018-05-18T00:43:34.065Z,0
2018-05-18T00:44:44.073Z,0
2018-05-18T00:45:54.083Z,0
2018-05-18T00:47:04.103Z,0
2018-05-18T00:48:14.123Z,0
2018-05-18T00:49:23.862Z,0
2018-05-18T00:50:33.613Z,0
2018-05-18T00:51:43.631Z,0
2018-05-18T00:52:53.638Z,0
2018-05-18T00:54:03.652Z,0
2018-05-18T00:55:13.659Z,0
2018-05-18T00:56:23.664Z,0
2018-05-18T00:57:33.404Z,0
2018-05-18T00:58:42.615Z,0
2018-05-18T00:59:52.092Z,0
2018-05-18T01:01:01.303Z,0
2018-05-18T01:02:10.776Z,0
2018-05-18T01:03:20.790Z,0
2018-05-18T01:04:29.829Z,0
2018-05-18T01:05:39.847Z,0
2018-05-18T01:06:49.591Z,0
2018-05-18T01:07:59.060Z,0
2018-05-18T01:09:09.084Z,0
2018-05-18T01:10:19.092Z,0
2018-05-18T01:11:29.101Z,0
2018-05-18T01:12:39.110Z,0
2018-05-18T01:13:49.118Z,0
2018-05-18T01:14:59.218Z,0
2018-05-18T01:16:08.957Z,0
2018-05-18T01:17:18.707Z,0
2018-05-18T01:18:28.722Z,0
2018-05-18T01:19:38.464Z,0
2018-05-18T01:20:48.205Z,0
2018-05-18T01:21:58.224Z,4
2018-05-18T01:23:07.973Z,4
2018-05-18T01:24:17.719Z,4
2018-05-18T01:25:27.721Z,4
2018-05-18T01:26:37.201Z,0
2018-05-18T01:27:47.209Z,0
2018-05-18T01:28:57.214Z,0
2018-05-18T01:30:07.236Z,4
2018-05-18T01:31:17.243Z,4
2018-05-18T01:32:27.251Z,4
2018-05-18T01:33:37.255Z,0
2018-05-18T01:34:46.727Z,4
2018-05-18T01:35:56.469Z,4
2018-05-18T01:37:06.212Z,4
2018-05-18T01:38:15.955Z,4
2018-05-18T01:39:25.693Z,4
2018-05-18T01:40:35.438Z,8
2018-05-18T01:41:45.260Z,4
2018-05-18T01:42:54.998Z,8
2018-05-18T01:44:05.009Z,8
2018-05-18T01:45:15.024Z,12
2018-05-18T01:46:25.039Z,8
2018-05-18T01:47:35.058Z,8
2018-05-18T01:48:44.801Z,12
2018-05-18T01:49:54.273Z,12
2018-05-18T01:51:03.751Z,16
2018-05-18T01:52:12.952Z,16
2018-05-18T01:53:22.695Z,16
2018-05-18T01:54:32.164Z,20
2018-05-18T01:55:41.673Z,20
2018-05-18T01:56:51.681Z,20
2018-05-18T01:58:01.756Z,24
2018-05-18T01:59:11.509Z,28
2018-05-18T02:00:21.248Z,28
2018-05-18T02:01:30.450Z,36
2018-05-18T02:02:40.189Z,36
2018-05-18T02:03:49.929Z,36
2018-05-18T02:04:59.673Z,40
2018-05-18T02:06:08.880Z,48
2018-05-18T02:07:18.622Z,48
2018-05-18T02:08:28.631Z,56
2018-05-18T02:09:37.568Z,60
2018-05-18T02:10:47.576Z,64
2018-05-18T02:11:57.587Z,72
2018-05-18T02:13:07.599Z,76
2018-05-18T02:14:17.631Z,84
2018-05-18T02:15:27.367Z,88
2018-05-18T02:16:37.433Z,96
2018-05-18T02:17:46.908Z,104
2018-05-18T02:18:56.737Z,112
2018-05-18T02:20:06.476Z,124
2018-05-18T02:21:16.219Z,132
2018-05-18T02:22:26.229Z,140
2018-05-18T02:23:35.971Z,152
2018-05-18T02:24:45.707Z,160
2018-05-18T02:25:55.721Z,172
2018-05-18T02:27:05.462Z,184
2018-05-18T02:28:14.674Z,196
2018-05-18T02:29:24.413Z,212
2018-05-18T02:30:34.159Z,220
2018-05-18T02:31:44.278Z,236
2018-05-18T02:32:54.297Z,252
2018-05-18T02:34:04.314Z,268
2018-05-18T02:35:14.336Z,284
2018-05-18T02:36:24.351Z,304
2018-05-18T02:37:34.428Z,320
2018-05-18T02:38:44.471Z,336
2018-05-18T02:39:54.198Z,356
2018-05-18T02:41:03.963Z,372
2018-05-18T02:42:13.706Z,396
2018-05-18T02:43:23.445Z,412
2018-05-18T02:44:32.915Z,436
2018-05-18T02:45:42.923Z,456
2018-05-18T02:46:52.941Z,480
2018-05-18T02:48:02.414Z,500
2018-05-18T02:49:12.162Z,524
2018-05-18T02:50:21.908Z,548
2018-05-18T02:51:31.678Z,572
2018-05-18T02:52:41.689Z,592
2018-05-18T02:53:51.851Z,620
2018-05-18T02:55:01.593Z,644
2018-05-18T02:56:11.604Z,664
2018-05-18T02:57:21.352Z,692
2018-05-18T02:58:31.096Z,716
2018-05-18T02:59:40.840Z,744
2018-05-18T03:03:31.368Z,824
2018-05-18T03:04:41.426Z,852
2018-05-18T03:05:51.441Z,880
2018-05-18T03:07:01.473Z,908
2018-05-18T03:08:11.298Z,932
2018-05-18T03:09:21.311Z,956
2018-05-18T03:10:31.335Z,984
2018-05-18T03:11:41.348Z,1008
2018-05-18T03:12:51.113Z,1040
2018-05-18T03:14:00.854Z,1060
2018-05-18T03:15:10.875Z,1088
2018-05-18T03:16:20.879Z,1116
2018-05-18T03:17:30.894Z,1144
2018-05-18T03:18:40.902Z,1168
2018-05-18T03:19:50.915Z,1196
2018-05-18T03:21:01.093Z,1224
2018-05-18T03:22:10.572Z,1248
2018-05-18T03:23:20.318Z,1272
2018-05-18T03:24:29.260Z,1296
2018-05-18T03:25:39.273Z,1324
2018-05-18T03:26:49.012Z,1348
2018-05-18T03:27:59.019Z,1376
2018-05-18T03:29:08.759Z,1396
2018-05-18T03:30:18.236Z,1424
2018-05-18T03:31:28.360Z,1448
2018-05-18T03:32:38.456Z,1472
2018-05-18T03:33:48.191Z,1500
2018-05-18T03:34:57.929Z,1528
2018-05-18T03:36:06.871Z,1552
2018-05-18T03:37:16.611Z,1576
2018-05-18T03:38:26.081Z,1600
2018-05-18T03:39:35.559Z,1620
2018-05-18T03:40:45.305Z,1644
2018-05-18T03:41:55.049Z,1672
2018-05-18T03:43:05.055Z,1696
2018-05-18T03:44:14.802Z,1720
2018-05-18T03:45:24.549Z,1744
2018-05-18T03:46:34.288Z,1764
2018-05-18T03:47:44.029Z,1784
2018-05-18T03:48:53.506Z,1808
2018-05-18T03:50:03.621Z,1832
2018-05-18T03:51:13.098Z,1852
2018-05-18T03:52:22.836Z,1872
2018-05-18T03:53:32.320Z,1896
2018-05-18T03:54:41.795Z,1916
2018-05-18T03:55:51.265Z,1940
2018-05-18T03:57:01.299Z,1956
2018-05-18T03:58:11.041Z,1980
2018-05-18T03:59:20.257Z,2000
2018-05-18T04:00:30.011Z,2020
2018-05-18T04:01:39.758Z,2040
2018-05-18T04:02:49.497Z,2060
2018-05-18T04:03:59.501Z,2080
2018-05-18T04:05:08.436Z,2100
2018-05-18T04:06:18.175Z,2120
2018-05-18T04:07:27.919Z,2136
2018-05-18T04:08:37.659Z,2152
2018-05-18T04:09:47.674Z,2176
2018-05-18T04:10:57.425Z,2192
2018-05-18T04:12:07.178Z,2208
2018-05-18T04:13:17.186Z,2232
2018-05-18T04:14:26.933Z,2244
2018-05-18T04:15:36.670Z,2264
2018-05-18T04:16:46.145Z,2276
2018-05-18T04:17:56.149Z,2292
2018-05-18T04:19:05.627Z,2308
2018-05-18T04:20:15.101Z,2316
2018-05-18T04:21:25.111Z,2332
2018-05-18T04:22:34.857Z,2352
2018-05-18T04:23:44.874Z,2364
2018-05-18T04:24:54.946Z,2388
2018-05-18T04:26:04.782Z,2404
2018-05-18T04:27:14.521Z,2420
2018-05-18T04:28:24.262Z,2436
2018-05-18T04:29:34.022Z,2448
2018-05-18T04:30:43.766Z,2464
2018-05-18T04:31:53.769Z,2484
2018-05-18T04:33:03.525Z,2496
2018-05-18T04:34:13.000Z,2512
2018-05-18T04:35:23.016Z,2524
2018-05-18T04:36:32.756Z,2540
2018-05-18T04:37:42.494Z,2556
2018-05-18T04:38:52.498Z,2572
2018-05-18T04:40:02.504Z,2584
2018-05-18T04:41:12.245Z,2596
2018-05-18T04:42:21.983Z,2612
2018-05-18T04:43:31.987Z,2624
2018-05-18T04:44:41.998Z,2636
2018-05-18T04:45:52.014Z,2648
2018-05-18T04:47:01.487Z,2656
2018-05-18T04:48:11.278Z,2668
2018-05-18T04:49:21.289Z,2680
2018-05-18T04:50:31.031Z,2684
2018-05-18T04:51:41.034Z,2696
2018-05-18T04:52:50.776Z,2700
2018-05-18T04:54:00.516Z,2708
2018-05-18T04:55:10.524Z,2716
2018-05-18T04:56:20.263Z,2728
2018-05-18T04:57:29.737Z,2732
2018-05-18T04:58:39.482Z,2748
2018-05-18T04:59:49.492Z,2752
2018-05-18T05:00:59.258Z,2756
2018-05-18T05:02:08.459Z,2764
2018-05-18T05:03:18.474Z,2772
2018-05-18T05:04:28.213Z,2784
2018-05-18T05:05:38.409Z,2792
2018-05-18T05:06:48.415Z,2800
2018-05-18T05:07:58.428Z,2808
2018-05-18T05:09:08.166Z,2812
2018-05-18T05:10:17.911Z,2824
2018-05-18T05:11:27.657Z,2828
2018-05-18T05:12:37.545Z,2836
2018-05-18T05:13:47.481Z,2844
2018-05-18T05:14:57.231Z,2848
2018-05-18T05:16:06.974Z,2852
2018-05-18T05:17:17.000Z,2864
2018-05-18T05:18:26.758Z,2868
2018-05-18T05:19:36.770Z,2876
2018-05-18T05:20:46.777Z,2884
2018-05-18T05:21:56.248Z,2888
2018-05-18T05:23:05.990Z,2896
2018-05-18T05:24:16.007Z,2900
2018-05-18T05:25:25.749Z,2908
2018-05-18T05:26:35.487Z,2916
2018-05-18T05:27:44.964Z,2928
2018-05-18T05:28:54.973Z,2936
2018-05-18T05:30:04.981Z,2944
2018-05-18T05:31:14.992Z,2944
2018-05-18T05:32:25.005Z,2952
2018-05-18T05:33:34.489Z,2956
2018-05-18T05:34:44.241Z,2964
2018-05-18T05:35:54.250Z,2968
2018-05-18T05:37:03.989Z,2972
2018-05-18T05:38:13.461Z,2984
2018-05-18T05:39:23.477Z,2996
2018-05-18T05:40:33.227Z,3000
2018-05-18T05:41:43.236Z,3008
2018-05-18T05:42:53.258Z,3012
2018-05-18T05:44:03.264Z,3024
2018-05-18T05:45:12.734Z,3028
2018-05-18T05:46:22.756Z,3028
2018-05-18T05:47:32.776Z,3036
2018-05-18T05:48:42.786Z,3044
2018-05-18T05:49:52.535Z,3056
2018-05-18T05:51:02.286Z,3056
2018-05-18T05:52:12.125Z,3060
2018-05-18T05:53:21.337Z,3064
2018-05-18T05:54:31.356Z,3076
2018-05-18T05:55:40.834Z,3076
2018-05-18T05:56:50.851Z,3084
2018-05-18T05:58:00.602Z,3088
2018-05-18T05:59:10.080Z,3092
2018-05-18T06:00:20.193Z,3096
2018-05-18T06:01:30.209Z,3100
2018-05-18T06:02:39.958Z,3108
2018-05-18T06:03:49.701Z,3112
2018-05-18T06:04:59.737Z,3116
2018-05-18T06:06:09.555Z,3120
2018-05-18T06:07:19.602Z,3124
2018-05-18T06:08:29.609Z,3132
2018-05-18T06:09:39.621Z,3136
2018-05-18T06:10:49.370Z,3136
2018-05-18T06:11:59.206Z,3144
2018-05-18T06:13:08.982Z,3156
2018-05-18T06:14:19.039Z,3152
2018-05-18T06:15:28.884Z,3160
2018-05-18T06:16:38.924Z,3164
2018-05-18T06:17:48.954Z,3164
2018-05-18T06:18:58.691Z,3172
2018-05-18T06:20:08.165Z,3176
2018-05-18T06:21:18.173Z,3180
2018-05-18T06:22:27.919Z,3184
2018-05-18T06:23:37.669Z,3184
2018-05-18T06:24:47.676Z,3188
2018-05-18T06:25:57.689Z,3192
2018-05-18T06:27:07.706Z,3200
2018-05-18T06:28:17.456Z,3208
2018-05-18T06:29:27.199Z,3208
2018-05-18T06:30:36.673Z,3212
2018-05-18T06:31:46.418Z,3216
2018-05-18T06:32:56.436Z,3224
2018-05-18T06:34:06.182Z,3228
2018-05-18T06:35:16.905Z,3228
2018-05-18T06:36:27.217Z,3236
2018-05-18T06:37:36.429Z,3244
2018-05-18T06:38:46.445Z,3248
2018-05-18T06:39:56.468Z,3252
2018-05-18T06:41:05.673Z,3260
2018-05-18T06:42:15.415Z,3264
2018-05-18T06:43:24.972Z,3316
2018-05-18T06:44:34.768Z,3276
2018-05-18T06:45:44.249Z,3276
2018-05-18T06:46:54.577Z,3284
2018-05-18T06:48:04.415Z,3292
2018-05-18T06:49:13.886Z,3292
2018-05-18T06:50:23.894Z,3304
2018-05-18T06:51:33.904Z,3312
2018-05-18T06:52:44.005Z,3320
2018-05-18T06:53:54.024Z,3328
2018-05-18T06:55:03.791Z,3336
2018-05-18T06:56:13.535Z,3340
2018-05-18T06:57:23.278Z,3348
2018-05-18T06:58:32.750Z,3360
2018-05-18T06:59:42.507Z,3364
2018-05-18T07:00:52.520Z,3372
2018-05-18T07:02:02.532Z,3380
2018-05-18T07:03:12.011Z,3392
2018-05-18T07:04:22.027Z,3392
2018-05-18T07:05:31.509Z,3396
2018-05-18T07:06:41.044Z,3412
2018-05-18T07:07:50.828Z,3412
2018-05-18T07:09:00.614Z,3420
2018-05-18T07:10:10.395Z,3432
2018-05-18T07:11:20.412Z,3436
2018-05-18T07:12:30.440Z,3444
2018-05-18T07:13:40.204Z,3452
2018-05-18T07:14:49.415Z,3456
2018-05-18T07:15:59.428Z,3460
2018-05-18T07:17:08.931Z,3472
2018-05-18T07:18:18.413Z,3476
2018-05-18T07:19:27.998Z,3488
2018-05-18T07:20:37.211Z,3488
2018-05-18T07:21:47.228Z,3492
2018-05-18T07:22:57.383Z,3500
2018-05-18T07:24:07.420Z,3504
2018-05-18T07:25:16.894Z,3512
2018-05-18T07:26:26.642Z,3520
2018-05-18T07:27:36.662Z,3524
2018-05-18T07:28:46.138Z,3532
2018-05-18T07:29:55.614Z,3540
2018-05-18T07:31:05.728Z,3548
2018-05-18T07:32:15.741Z,3556
2018-05-18T07:33:25.218Z,3572
2018-05-18T07:34:35.232Z,3580
2018-05-18T07:35:45.238Z,3584
2018-05-18T07:36:55.251Z,3592
2018-05-18T07:38:05.270Z,3600
2018-05-18T07:39:14.746Z,3608
2018-05-18T07:40:24.219Z,3620
2018-05-18T07:41:34.002Z,3624
2018-05-18T07:42:43.743Z,3636
2018-05-18T07:43:53.569Z,3640
2018-05-18T07:45:03.763Z,3648
2018-05-18T07:46:13.241Z,3656
2018-05-18T07:47:23.247Z,3708
2018-05-18T07:48:32.987Z,3680
2018-05-18T07:49:43.008Z,3676
2018-05-18T07:50:52.756Z,3688
2018-05-18T07:52:02.504Z,3696
2018-05-18T07:53:11.989Z,3696
2018-05-18T07:54:21.325Z,3708
2018-05-18T07:55:31.332Z,3716
2018-05-18T07:56:41.083Z,3720
2018-05-18T07:57:50.828Z,3732
2018-05-18T07:59:00.841Z,3740
2018-05-18T08:00:10.587Z,3748
2018-05-18T08:01:20.334Z,3760
2018-05-18T08:02:30.087Z,3768
2018-05-18T08:03:39.577Z,3780
2018-05-18T08:04:49.340Z,3788
2018-05-18T08:05:59.086Z,3796
2018-05-18T08:07:09.109Z,3808
2018-05-18T08:08:19.123Z,3816
2018-05-18T08:09:28.599Z,3824
2018-05-18T08:10:38.352Z,3836
2018-05-18T08:11:47.832Z,3848
2018-05-18T08:12:57.305Z,3856
2018-05-18T08:14:06.788Z,3864
2018-05-18T08:15:17.086Z,3876
2018-05-18T08:16:26.574Z,3880
2018-05-18T08:17:36.641Z,3896
2018-05-18T08:18:46.117Z,3904
2018-05-18T08:19:55.865Z,3916
2018-05-18T08:21:05.353Z,3920
2018-05-18T08:22:14.560Z,3932
2018-05-18T08:23:24.309Z,3940
2018-05-18T08:24:34.319Z,3956
2018-05-18T08:25:44.062Z,3968
2018-05-18T08:26:53.548Z,3984
2018-05-18T08:28:03.564Z,4012
2018-05-18T08:29:13.578Z,4000
2018-05-18T08:30:23.589Z,4012
2018-05-18T08:31:33.603Z,4036
2018-05-18T08:32:43.357Z,4036
2018-05-18T08:33:53.368Z,4048
2018-05-18T08:35:03.376Z,4060
2018-05-18T08:36:13.393Z,4072
2018-05-18T08:37:23.421Z,4088
2018-05-18T08:38:33.182Z,4100
2018-05-18T08:39:43.197Z,4112
2018-05-18T08:40:53.308Z,4120
2018-05-18T08:42:03.326Z,4132
2018-05-18T08:43:13.079Z,4148
2018-05-18T08:44:23.079Z,4164
2018-05-18T08:45:33.089Z,4176
2018-05-18T08:46:42.564Z,4188
2018-05-18T08:47:52.043Z,4200
2018-05-18T08:49:02.060Z,4212
2018-05-18T08:50:11.893Z,4228
2018-05-18T08:51:21.645Z,4244
2018-05-18T08:52:30.958Z,4252
2018-05-18T08:53:40.708Z,4260
2018-05-18T08:54:50.466Z,4276
2018-05-18T08:56:00.483Z,4288
2018-05-18T08:57:09.963Z,4304
2018-05-18T08:58:19.709Z,4312
2018-05-18T08:59:29.818Z,4328
2018-05-18T09:00:39.508Z,4340
2018-05-18T09:01:49.643Z,4360
2018-05-18T09:02:59.394Z,4380
2018-05-18T09:04:09.148Z,4388
2018-05-18T09:05:19.159Z,4404
2018-05-18T09:06:28.932Z,4420
2018-05-18T09:07:38.412Z,4428
2018-05-18T09:08:47.912Z,4440
2018-05-18T09:09:58.001Z,4452
2018-05-18T09:11:07.481Z,4496
2018-05-18T09:12:17.531Z,4480
2018-05-18T09:13:27.555Z,4488
2018-05-18T09:14:37.303Z,4504
2018-05-18T09:15:46.782Z,4512
2018-05-18T09:16:56.566Z,4536
2018-05-18T09:18:05.774Z,4568
2018-05-18T09:19:15.549Z,4564
2018-05-18T09:20:25.559Z,4580
2018-05-18T09:21:35.305Z,4588
2018-05-18T09:22:45.329Z,4612
2018-05-18T09:23:54.826Z,4612
2018-05-18T09:25:04.569Z,4632
2018-05-18T09:26:14.586Z,4656
2018-05-18T09:27:24.062Z,4696
2018-05-18T09:28:33.804Z,4764
2018-05-18T09:29:43.548Z,4868
2018-05-18T09:30:53.565Z,4960
2018-05-18T09:32:03.574Z,5028
2018-05-18T09:33:13.336Z,5052
2018-05-18T09:34:23.277Z,5080
2018-05-18T09:35:33.025Z,5044
2018-05-18T09:36:42.245Z,4992
2018-05-18T09:37:51.988Z,4932
2018-05-18T09:39:01.746Z,4980
2018-05-18T09:40:11.226Z,4996
2018-05-18T09:41:20.705Z,5044
2018-05-18T09:42:30.738Z,5108
2018-05-18T09:43:40.216Z,5128
2018-05-18T09:44:49.973Z,5168
2018-05-18T09:45:59.993Z,5168
2018-05-18T09:47:10.009Z,5164
2018-05-18T09:48:20.022Z,5204
2018-05-18T09:49:28.968Z,5224
2018-05-18T09:50:38.724Z,5216
2018-05-18T09:51:48.481Z,5288
2018-05-18T09:52:58.505Z,5224
2018-05-18T09:54:08.569Z,5180
2018-05-18T09:55:18.591Z,5144
2018-05-18T09:56:29.142Z,5096
2018-05-18T09:57:38.895Z,5092
2018-05-18T09:58:48.649Z,5092
2018-05-18T09:59:58.665Z,5096
2018-05-18T10:01:08.687Z,5088
2018-05-18T10:02:18.544Z,5068
2018-05-18T10:03:28.568Z,5072
2018-05-18T10:04:38.316Z,5080
2018-05-18T10:05:48.333Z,5080
2018-05-18T10:06:58.471Z,5104
2018-05-18T10:08:07.938Z,5100
2018-05-18T10:09:17.685Z,5100
2018-05-18T10:10:27.448Z,5108
2018-05-18T10:11:36.926Z,5124
2018-05-18T10:12:46.682Z,5132
2018-05-18T10:13:56.694Z,5148
2018-05-18T10:15:06.713Z,5152
2018-05-18T10:16:16.197Z,5168
2018-05-18T10:17:26.207Z,5180
2018-05-18T10:18:36.421Z,5192
2018-05-18T10:19:46.270Z,5208
2018-05-18T10:20:55.212Z,5220
2018-05-18T10:22:04.425Z,5228
2018-05-18T10:23:14.441Z,5240
2018-05-18T10:24:24.193Z,5404
2018-05-18T10:25:34.025Z,5260
2018-05-18T10:26:43.505Z,5272
2018-05-18T10:27:53.531Z,5320
2018-05-18T10:29:03.019Z,5316
2018-05-18T10:30:13.034Z,5328
2018-05-18T10:31:23.052Z,5344
2018-05-18T10:32:32.266Z,5360
2018-05-18T10:33:42.288Z,5380
2018-05-18T10:34:52.307Z,5400
2018-05-18T10:36:02.328Z,5424
2018-05-18T10:37:12.161Z,5444
2018-05-18T10:38:22.173Z,5460
2018-05-18T10:39:31.928Z,5476
2018-05-18T10:40:41.493Z,5500
2018-05-18T10:41:51.241Z,5520
2018-05-18T10:43:00.985Z,5536
2018-05-18T10:44:10.200Z,5560
2018-05-18T10:45:20.454Z,5580
2018-05-18T10:46:30.510Z,5600
2018-05-18T10:47:40.260Z,5624
2018-05-18T10:48:50.283Z,5640
2018-05-18T10:50:00.038Z,5656
2018-05-18T10:51:09.791Z,5680
2018-05-18T10:52:19.612Z,5696
2018-05-18T10:53:29.092Z,5720
2018-05-18T10:54:39.111Z,5756
2018-05-18T10:55:48.590Z,5776
2018-05-18T10:56:58.606Z,5784
2018-05-18T10:58:08.353Z,5800
2018-05-18T10:59:17.829Z,5820
2018-05-18T11:00:27.625Z,5848
2018-05-18T11:01:37.375Z,5872
2018-05-18T11:02:47.388Z,5892
2018-05-18T11:03:57.414Z,5916
2018-05-18T11:05:07.436Z,5948
2018-05-18T11:06:17.461Z,5976
2018-05-18T11:07:26.952Z,6004
2018-05-18T11:08:36.970Z,6048
2018-05-18T11:09:46.991Z,6092
2018-05-18T11:10:57.012Z,6136
2018-05-18T11:12:06.766Z,6176
2018-05-18T11:13:16.782Z,6204
2018-05-18T11:14:26.672Z,6240
2018-05-18T11:15:36.687Z,6256
2018-05-18T11:16:46.170Z,6284
2018-05-18T11:17:56.380Z,6320
2018-05-18T11:19:06.138Z,6352
2018-05-18T11:20:16.084Z,6504
2018-05-18T11:21:25.835Z,6504
2018-05-18T11:22:35.849Z,6556
2018-05-18T11:23:45.866Z,6596
2018-05-18T11:24:55.618Z,6720
2018-05-18T11:26:05.385Z,7208
2018-05-18T11:27:14.862Z,8368
2018-05-18T11:28:24.672Z,14692
2018-05-18T11:29:34.708Z,62080
2018-05-18T11:30:44.286Z,87296
2018-05-18T11:31:53.777Z,87776
2018-05-18T11:33:03.068Z,90880
2018-05-18T11:34:12.524Z,84352
2018-05-18T11:35:22.274Z,78816
2018-05-18T11:36:32.031Z,79040
2018-05-18T11:37:41.785Z,80768
2018-05-18T11:38:51.538Z,80192
2018-05-18T11:40:01.571Z,75808
2018-05-18T11:41:10.797Z,78816
2018-05-18T11:42:20.864Z,82752
2018-05-18T11:43:30.888Z,85568
2018-05-18T11:44:40.934Z,87680
2018-05-18T11:45:50.958Z,87136
2018-05-18T11:47:00.550Z,87968
2018-05-18T11:48:10.042Z,87616
2018-05-18T11:49:19.895Z,81600
2018-05-18T11:50:30.193Z,82784
2018-05-18T11:51:39.685Z,77632
2018-05-18T11:52:49.707Z,81920
2018-05-18T11:53:59.471Z,91648
2018-05-18T11:55:08.974Z,91008
2018-05-18T11:56:18.996Z,88512
2018-05-18T11:57:28.755Z,83552
2018-05-18T11:58:38.331Z,78080
2018-05-18T11:59:48.357Z,80576
2018-05-18T12:00:58.122Z,85600
2018-05-18T12:02:07.882Z,85600
2018-05-18T12:03:17.653Z,84576
2018-05-18T12:04:26.881Z,90176
2018-05-18T12:05:36.909Z,92128
2018-05-18T12:06:46.727Z,90560
2018-05-18T12:07:56.489Z,83776
2018-05-18T12:09:06.530Z,76896
2018-05-18T12:10:16.294Z,74144
2018-05-18T12:11:26.054Z,71104
2018-05-18T12:12:36.091Z,72416
2018-05-18T12:13:45.316Z,78592
2018-05-18T12:14:54.818Z,79296
2018-05-18T12:16:04.678Z,77248
2018-05-18T12:17:14.710Z,75520
2018-05-18T12:18:24.760Z,72256
2018-05-18T12:19:34.531Z,74336
2018-05-18T12:20:44.294Z,81024
2018-05-18T12:21:53.790Z,84704
2018-05-18T12:23:03.562Z,80736
2018-05-18T12:24:13.327Z,83744
2018-05-18T12:25:23.092Z,75552
2018-05-18T12:26:33.128Z,69088
2018-05-18T12:27:42.891Z,73504
2018-05-18T12:28:52.391Z,80032
2018-05-18T12:30:02.431Z,84416
2018-05-18T12:31:11.662Z,81664
2018-05-18T12:32:21.444Z,80192
2018-05-18T12:33:31.482Z,80288
2018-05-18T12:34:41.527Z,78304
2018-05-18T12:35:51.563Z,79840
2018-05-18T12:37:01.327Z,76832
2018-05-18T12:38:11.751Z,76704
2018-05-18T12:39:21.756Z,79968
2018-05-18T12:40:31.530Z,87136
2018-05-18T12:41:41.033Z,88960
2018-05-18T12:42:50.803Z,84640
2018-05-18T12:44:00.582Z,83168
2018-05-18T12:45:10.356Z,84256
2018-05-18T12:46:20.401Z,85952
2018-05-18T12:47:30.451Z,87488
2018-05-18T12:48:40.217Z,86880
2018-05-18T12:49:49.987Z,84608
2018-05-18T12:51:00.032Z,81728
2018-05-18T12:52:09.817Z,77312
2018-05-18T12:53:19.592Z,77216
2018-05-18T12:54:29.626Z,79008
2018-05-18T12:55:39.419Z,82528
2018-05-18T12:56:49.562Z,85088
2018-05-18T12:57:59.596Z,84224
2018-05-18T12:59:09.369Z,81344
2018-05-18T13:00:19.409Z,79488
2018-05-18T13:01:29.527Z,80960
2018-05-18T13:02:39.568Z,85280
2018-05-18T13:03:49.618Z,88352
2018-05-18T13:04:59.691Z,90496
2018-05-18T13:06:09.462Z,89376
2018-05-18T13:07:18.960Z,88800
2018-05-18T13:08:28.837Z,90592
2018-05-18T13:09:38.878Z,88992
2018-05-18T13:10:48.913Z,85600
2018-05-18T13:11:58.725Z,87392
2018-05-18T13:13:08.768Z,86208
2018-05-18T13:14:18.864Z,90272
2018-05-18T13:15:28.636Z,92832
2018-05-18T13:16:38.663Z,88864
2018-05-18T13:17:48.696Z,83296
2018-05-18T13:18:58.735Z,89408
2018-05-18T13:20:08.775Z,92864
2018-05-18T13:21:18.816Z,90112
2018-05-18T13:22:28.579Z,88032
2018-05-18T13:23:38.616Z,85696
2018-05-18T13:24:48.381Z,81024
2018-05-18T13:25:58.416Z,74496
2018-05-18T13:27:07.923Z,74336
2018-05-18T13:28:17.965Z,86592
2018-05-18T13:29:27.463Z,89504
2018-05-18T13:30:37.036Z,86656
2018-05-18T13:31:47.010Z,86432
2018-05-18T13:32:56.791Z,92128
2018-05-18T13:34:06.295Z,95104
2018-05-18T13:35:16.069Z,89760
2018-05-18T13:36:25.571Z,80128
2018-05-18T13:37:35.613Z,86144
2018-05-18T13:38:46.262Z,88576
2018-05-18T13:39:56.302Z,79360
2018-05-18T13:41:06.128Z,77184
2018-05-18T13:42:16.173Z,75968
2018-05-18T13:43:25.994Z,75680
2018-05-18T13:44:36.023Z,75232
2018-05-18T13:45:46.118Z,71680
2018-05-18T13:46:56.154Z,74400
2018-05-18T13:48:06.189Z,80064
2018-05-18T13:49:15.957Z,78656
2018-05-18T13:50:25.724Z,74784
2018-05-18T13:51:35.772Z,80032
2018-05-18T13:52:45.844Z,82336
2018-05-18T13:53:55.348Z,76192
2018-05-18T13:55:05.110Z,72256
2018-05-18T13:56:14.875Z,74432
2018-05-18T13:57:24.831Z,73472
2018-05-18T13:58:34.870Z,74176
2018-05-18T13:59:44.366Z,75712
2018-05-18T14:00:53.866Z,70688
2018-05-18T14:02:03.696Z,70784
2018-05-18T14:03:12.937Z,73248
2018-05-18T14:04:22.702Z,74464
2018-05-18T14:05:32.475Z,67424
2018-05-18T14:06:42.243Z,59264
2018-05-18T14:07:51.745Z,54528
2018-05-18T14:09:01.514Z,49088
2018-05-18T14:10:11.550Z,44256
2018-05-18T14:11:21.053Z,43232
2018-05-18T14:12:30.820Z,45664
2018-05-18T14:13:40.857Z,53728
2018-05-18T14:14:50.896Z,66176
2018-05-18T14:16:00.931Z,72160
2018-05-18T14:17:10.992Z,69184
2018-05-18T14:18:21.138Z,71648
2018-05-18T14:19:31.184Z,76608
2018-05-18T14:20:40.687Z,80160
2018-05-18T14:21:50.451Z,76288
2018-05-18T14:23:00.222Z,72096
2018-05-18T14:24:09.719Z,72064
2018-05-18T14:25:19.771Z,71584
2018-05-18T14:26:30.218Z,68096
2018-05-18T14:27:40.259Z,69664
2018-05-18T14:28:50.295Z,76256
2018-05-18T14:29:59.803Z,75008
2018-05-18T14:31:09.578Z,71040
2018-05-18T14:32:18.816Z,65984
2018-05-18T14:33:28.987Z,66336
2018-05-18T14:34:39.030Z,67712
2018-05-18T14:35:49.063Z,70528
2018-05-18T14:36:59.118Z,74528
2018-05-18T14:38:08.979Z,79328
2018-05-18T14:39:19.305Z,72768
2018-05-18T14:40:29.350Z,59424
2018-05-18T14:41:38.845Z,56800
2018-05-18T14:42:48.625Z,55232
2018-05-18T14:43:58.933Z,54144
2018-05-18T14:45:08.855Z,50336
2018-05-18T14:46:18.897Z,48000
2018-05-18T14:47:28.665Z,48384
2018-05-18T14:48:38.437Z,50816
2018-05-18T14:49:48.202Z,54016
2018-05-18T14:50:57.713Z,59040
2018-05-18T14:52:06.946Z,65952
2018-05-18T14:53:16.714Z,70432
2018-05-18T14:54:26.210Z,68064
2018-05-18T14:55:35.706Z,67168
2018-05-18T14:56:45.201Z,69696
2018-05-18T14:57:54.969Z,67968
2018-05-18T14:59:05.006Z,66816
2018-05-18T15:00:15.046Z,74560
2018-05-18T15:01:25.084Z,75392
2018-05-18T15:02:34.590Z,76416
2018-05-18T15:03:44.088Z,80192
2018-05-18T15:04:53.857Z,84416
2018-05-18T15:06:03.622Z,85888
2018-05-18T15:07:13.663Z,83200
2018-05-18T15:08:23.697Z,82080
2018-05-18T15:09:33.470Z,82080
2018-05-18T15:10:43.341Z,83808
2018-05-18T15:11:53.373Z,88192
2018-05-18T15:13:03.151Z,82816
2018-05-18T15:14:12.647Z,80864
2018-05-18T15:15:22.699Z,81952
2018-05-18T15:16:32.316Z,85760
2018-05-18T15:17:41.543Z,84064
2018-05-18T15:18:51.309Z,84512
2018-05-18T15:20:01.338Z,83712
2018-05-18T15:21:11.375Z,83584
2018-05-18T15:22:21.420Z,79776
2018-05-18T15:23:31.568Z,80864
2018-05-18T15:24:41.056Z,78720
2018-05-18T15:25:50.822Z,77248
2018-05-18T15:27:00.858Z,77984
2018-05-18T15:28:10.992Z,78816
2018-05-18T15:29:20.760Z,78080
2018-05-18T15:30:30.793Z,79968
2018-05-18T15:31:40.562Z,76064
2018-05-18T15:32:50.603Z,75392
2018-05-18T15:34:00.691Z,73856
2018-05-18T15:35:10.190Z,75456
2018-05-18T15:36:20.223Z,74176
2018-05-18T15:37:30.812Z,75296